Terminal Aerodrome Forecast
Issued by NWS Charleston, SC

Home | Current Version | Previous Version | Text Only | Print | Product List | Glossary On
Versions: 1 2 3 4 5 6 7 8 9 10 11 12 13 14 15 16 17
971
FTUS42 KCHS 191133
TAFSAV
TAF
KSAV 191133Z 1912/2012 29003KT 6SM BR FEW090
      TEMPO 1912/1914 3SM BR SCT004
     FM191400 35003KT P6SM SCT250
     FM200100 12005KT P6SM BKN070
     FM200600 18003KT P6SM BKN025 PROB30 2009/2012 4SM -SHRA SCT007
      OVC012=

USA.gov is the U.S. government's official web portal to all federal, state and local government web resources and services.